EmailTwitter


Observations de surface / Europe / LIRF (16242)

Régions: Québec | Canada | États-Unis | Europe | France | UK | Ailleurs
Station
Affichage
Infos & localisation pour LIRF (16242) | Aide pour décoder les METARs

Observations prises le 2020-04-06 à 09H20 UTC (LIRF)

Température: 19.0 Celsius

Point de rosée: 2.0 Celsius

Humidité relative: 32%

Vents: Est-nord-est à 13 km/h ou 7 noeuds.

Pression au niveau moyen de la mer: 102.30 kilopascals.

Observation METAR:

LIRF 060920Z 07007KT 040V100 CAVOK 19/02 Q1023 NOSIG=